sensor_id;sensor_type;location;lat;lon;timestamp;pressure;altitude;pressure_sealevel;temperature;humidity
18167;BME280;9208;42.688;23.404;2023-02-21T00:00:41;95853.44;;;6.86;80.23
18167;BME280;9208;42.688;23.404;2023-02-21T00:03:25;95850.88;;;6.91;79.70
18167;BME280;9208;42.688;23.404;2023-02-21T00:06:09;95861.84;;;7.00;79.18
18167;BME280;9208;42.688;23.404;2023-02-21T00:08:53;95860.97;;;7.03;78.35
18167;BME280;9208;42.688;23.404;2023-02-21T00:11:44;95857.81;;;7.05;78.26
18167;BME280;9208;42.688;23.404;2023-02-21T00:14:28;95864.13;;;7.02;77.52
18167;BME280;9208;42.688;23.404;2023-02-21T00:17:12;95870.94;;;6.97;78.13
18167;BME280;9208;42.688;23.404;2023-02-21T00:19:56;95872.97;;;6.84;77.88
18167;BME280;9208;42.688;23.404;2023-02-21T00:23:06;95872.31;;;6.59;79.08
18167;BME280;9208;42.688;23.404;2023-02-21T00:25:50;95875.59;;;6.54;79.20
18167;BME280;9208;42.688;23.404;2023-02-21T00:28:34;95864.72;;;6.41;79.84
18167;BME280;9208;42.688;23.404;2023-02-21T00:31:18;95858.63;;;6.37;79.87
18167;BME280;9208;42.688;23.404;2023-02-21T00:34:02;95860.91;;;6.39;79.98
18167;BME280;9208;42.688;23.404;2023-02-21T00:36:46;95865.16;;;6.40;78.95
18167;BME280;9208;42.688;23.404;2023-02-21T00:39:30;95865.63;;;6.38;80.17
18167;BME280;9208;42.688;23.404;2023-02-21T00:42:14;95863.00;;;6.35;79.34
18167;BME280;9208;42.688;23.404;2023-02-21T00:44:57;95868.25;;;6.29;79.75
18167;BME280;9208;42.688;23.404;2023-02-21T00:47:41;95861.94;;;6.20;80.80
18167;BME280;9208;42.688;23.404;2023-02-21T00:50:25;95856.06;;;6.21;81.70
18167;BME280;9208;42.688;23.404;2023-02-21T00:53:09;95847.56;;;6.32;81.51
18167;BME280;9208;42.688;23.404;2023-02-21T00:55:53;95845.34;;;6.39;81.88
18167;BME280;9208;42.688;23.404;2023-02-21T00:58:37;95841.94;;;6.48;82.05
18167;BME280;9208;42.688;23.404;2023-02-21T01:01:21;95835.34;;;6.58;81.51
18167;BME280;9208;42.688;23.404;2023-02-21T01:04:05;95826.16;;;6.64;81.12
18167;BME280;9208;42.688;23.404;2023-02-21T01:06:50;95831.75;;;6.82;79.72
18167;BME280;9208;42.688;23.404;2023-02-21T01:09:34;95828.63;;;6.93;78.85
18167;BME280;9208;42.688;23.404;2023-02-21T01:12:18;95833.50;;;6.98;77.92
18167;BME280;9208;42.688;23.404;2023-02-21T01:15:02;95822.03;;;7.03;77.45
18167;BME280;9208;42.688;23.404;2023-02-21T01:17:46;95814.38;;;7.10;76.81
18167;BME280;9208;42.688;23.404;2023-02-21T01:20:30;95814.88;;;6.96;77.51
18167;BME280;9208;42.688;23.404;2023-02-21T01:23:14;95806.59;;;7.00;77.59
18167;BME280;9208;42.688;23.404;2023-02-21T01:25:58;95806.94;;;7.11;77.08
18167;BME280;9208;42.688;23.404;2023-02-21T01:28:42;95806.38;;;7.16;76.43
18167;BME280;9208;42.688;23.404;2023-02-21T01:31:26;95805.03;;;7.20;75.88
18167;BME280;9208;42.688;23.404;2023-02-21T01:34:10;95807.75;;;7.20;75.41
18167;BME280;9208;42.688;23.404;2023-02-21T01:36:54;95796.53;;;7.18;75.92
18167;BME280;9208;42.688;23.404;2023-02-21T01:39:38;95792.91;;;7.21;75.90
18167;BME280;9208;42.688;23.404;2023-02-21T01:42:22;95794.88;;;7.21;75.70
18167;BME280;9208;42.688;23.404;2023-02-21T01:48:08;95798.97;;;7.16;76.42
18167;BME280;9208;42.688;23.404;2023-02-21T01:50:55;95782.59;;;7.16;76.31
18167;BME280;9208;42.688;23.404;2023-02-21T01:53:39;95790.06;;;7.25;75.93
18167;BME280;9208;42.688;23.404;2023-02-21T01:56:23;95775.88;;;7.08;76.46
18167;BME280;9208;42.688;23.404;2023-02-21T01:59:08;95773.66;;;6.85;77.60
18167;BME280;9208;42.688;23.404;2023-02-21T02:02:00;95765.22;;;6.71;78.63
18167;BME280;9208;42.688;23.404;2023-02-21T02:04:47;95767.59;;;6.60;80.25
18167;BME280;9208;42.688;23.404;2023-02-21T02:07:33;95759.06;;;6.58;80.40
18167;BME280;9208;42.688;23.404;2023-02-21T02:10:19;95759.78;;;6.49;82.82
18167;BME280;9208;42.688;23.404;2023-02-21T02:16:33;95760.28;;;6.14;85.56
18167;BME280;9208;42.688;23.404;2023-02-21T02:33:42;95738.69;;;5.73;90.83
18167;BME280;9208;42.688;23.404;2023-02-21T02:36:14;95748.50;;;5.83;90.77
18167;BME280;9208;42.688;23.404;2023-02-21T02:41:54;95748.56;;;5.79;90.37
18167;BME280;9208;42.688;23.404;2023-02-21T02:44:30;95747.63;;;5.73;91.27
18167;BME280;9208;42.688;23.404;2023-02-21T02:47:04;95745.16;;;5.66;92.40
18167;BME280;9208;42.688;23.404;2023-02-21T02:49:32;95743.28;;;5.63;92.17
18167;BME280;9208;42.688;23.404;2023-02-21T02:52:06;95732.53;;;5.60;92.81
18167;BME280;9208;42.688;23.404;2023-02-21T02:54:32;95745.69;;;5.61;92.59
18167;BME280;9208;42.688;23.404;2023-02-21T02:56:58;95743.28;;;5.63;91.92
18167;BME280;9208;42.688;23.404;2023-02-21T02:59:26;95741.00;;;5.62;91.90
18167;BME280;9208;42.688;23.404;2023-02-21T03:07:52;95742.75;;;5.68;91.23
18167;BME280;9208;42.688;23.404;2023-02-21T03:10:48;95745.97;;;5.76;89.66
18167;BME280;9208;42.688;23.404;2023-02-21T03:13:40;95738.69;;;5.73;89.50
18167;BME280;9208;42.688;23.404;2023-02-21T03:16:30;95740.03;;;5.68;89.71
18167;BME280;9208;42.688;23.404;2023-02-21T03:19:02;95743.81;;;5.71;90.11
18167;BME280;9208;42.688;23.404;2023-02-21T03:21:41;95736.53;;;5.80;89.25
18167;BME280;9208;42.688;23.404;2023-02-21T03:24:09;95741.31;;;5.76;88.74
18167;BME280;9208;42.688;23.404;2023-02-21T03:26:39;95736.84;;;5.82;88.65
18167;BME280;9208;42.688;23.404;2023-02-21T03:29:05;95737.50;;;5.86;88.02
18167;BME280;9208;42.688;23.404;2023-02-21T03:31:36;95733.09;;;6.01;87.11
18167;BME280;9208;42.688;23.404;2023-02-21T03:34:04;95734.00;;;5.98;87.20
18167;BME280;9208;42.688;23.404;2023-02-21T03:36:30;95734.63;;;6.02;86.76
18167;BME280;9208;42.688;23.404;2023-02-21T03:38:56;95723.28;;;6.04;86.86
18167;BME280;9208;42.688;23.404;2023-02-21T03:41:24;95742.41;;;6.13;85.85
18167;BME280;9208;42.688;23.404;2023-02-21T03:43:50;95739.94;;;6.06;85.11
18167;BME280;9208;42.688;23.404;2023-02-21T03:46:15;95740.59;;;6.10;84.66
18167;BME280;9208;42.688;23.404;2023-02-21T03:48:41;95741.22;;;6.14;84.87
18167;BME280;9208;42.688;23.404;2023-02-21T03:51:06;95744.47;;;6.09;83.68
18167;BME280;9208;42.688;23.404;2023-02-21T03:53:31;95743.09;;;6.04;84.09
18167;BME280;9208;42.688;23.404;2023-02-21T03:55:57;95749.41;;;6.01;84.52
18167;BME280;9208;42.688;23.404;2023-02-21T03:58:22;95747.66;;;6.07;84.29
18167;BME280;9208;42.688;23.404;2023-02-21T04:00:48;95757.56;;;6.14;82.77
18167;BME280;9208;42.688;23.404;2023-02-21T04:03:15;95765.91;;;6.19;81.46
18167;BME280;9208;42.688;23.404;2023-02-21T04:05:41;95764.50;;;6.15;80.90
18167;BME280;9208;42.688;23.404;2023-02-21T04:08:06;95754.44;;;6.24;80.92
18167;BME280;9208;42.688;23.404;2023-02-21T04:10:32;95757.56;;;6.35;80.34
18167;BME280;9208;42.688;23.404;2023-02-21T04:12:57;95763.38;;;6.46;80.84
18167;BME280;9208;42.688;23.404;2023-02-21T04:15:23;95765.00;;;6.56;81.43
18167;BME280;9208;42.688;23.404;2023-02-21T04:17:48;95761.56;;;6.65;81.54
18167;BME280;9208;42.688;23.404;2023-02-21T04:20:14;95756.31;;;6.70;81.30
18167;BME280;9208;42.688;23.404;2023-02-21T04:22:39;95762.19;;;6.69;80.44
18167;BME280;9208;42.688;23.404;2023-02-21T04:25:06;95767.31;;;6.67;79.84
18167;BME280;9208;42.688;23.404;2023-02-21T04:27:32;95776.97;;;6.59;78.76
18167;BME280;9208;42.688;23.404;2023-02-21T04:29:59;95767.66;;;6.47;79.99
18167;BME280;9208;42.688;23.404;2023-02-21T04:32:24;95766.19;;;6.34;80.43
18167;BME280;9208;42.688;23.404;2023-02-21T04:34:50;95773.25;;;6.31;81.13
18167;BME280;9208;42.688;23.404;2023-02-21T04:37:15;95778.94;;;6.24;81.20
18167;BME280;9208;42.688;23.404;2023-02-21T04:39:40;95778.06;;;6.27;81.09
18167;BME280;9208;42.688;23.404;2023-02-21T04:42:06;95774.63;;;6.14;81.90
18167;BME280;9208;42.688;23.404;2023-02-21T04:44:31;95767.38;;;5.99;82.74
18167;BME280;9208;42.688;23.404;2023-02-21T04:46:57;95762.50;;;5.94;82.56
18167;BME280;9208;42.688;23.404;2023-02-21T04:49:22;95763.28;;;5.82;84.79
18167;BME280;9208;42.688;23.404;2023-02-21T04:51:52;95764.41;;;5.84;84.94
18167;BME280;9208;42.688;23.404;2023-02-21T04:54:17;95759.38;;;5.83;84.90
18167;BME280;9208;42.688;23.404;2023-02-21T04:56:43;95751.41;;;5.88;85.07
18167;BME280;9208;42.688;23.404;2023-02-21T04:59:08;95751.31;;;5.92;85.06
18167;BME280;9208;42.688;23.404;2023-02-21T05:01:34;95751.19;;;5.95;86.19
18167;BME280;9208;42.688;23.404;2023-02-21T05:04:00;95760.00;;;5.99;85.90
18167;BME280;9208;42.688;23.404;2023-02-21T05:06:27;95755.50;;;6.05;86.05
18167;BME280;9208;42.688;23.404;2023-02-21T05:08:52;95759.00;;;6.06;86.25
18167;BME280;9208;42.688;23.404;2023-02-21T05:11:19;95746.13;;;6.06;85.51
18167;BME280;9208;42.688;23.404;2023-02-21T05:13:46;95742.97;;;6.08;85.64
18167;BME280;9208;42.688;23.404;2023-02-21T05:16:12;95756.13;;;6.09;84.08
18167;BME280;9208;42.688;23.404;2023-02-21T05:18:40;95746.13;;;6.06;82.85
18167;BME280;9208;42.688;23.404;2023-02-21T05:21:06;95747.66;;;6.07;82.48
18167;BME280;9208;42.688;23.404;2023-02-21T05:23:32;95761.47;;;6.13;81.80
18167;BME280;9208;42.688;23.404;2023-02-21T05:28:27;95748.38;;;6.20;81.82
18167;BME280;9208;42.688;23.404;2023-02-21T05:30:53;95751.97;;;6.17;81.30
18167;BME280;9208;42.688;23.404;2023-02-21T05:33:19;95748.38;;;6.20;80.83
18167;BME280;9208;42.688;23.404;2023-02-21T05:35:44;95745.41;;;6.27;81.79
18167;BME280;9208;42.688;23.404;2023-02-21T05:38:12;95754.06;;;6.35;82.11
18167;BME280;9208;42.688;23.404;2023-02-21T05:40:37;95749.47;;;6.44;81.76
18167;BME280;9208;42.688;23.404;2023-02-21T05:43:03;95751.75;;;6.46;81.54
18167;BME280;9208;42.688;23.404;2023-02-21T05:45:28;95757.94;;;6.46;81.91
18167;BME280;9208;42.688;23.404;2023-02-21T05:47:53;95762.66;;;6.46;81.21
18167;BME280;9208;42.688;23.404;2023-02-21T05:50:24;95761.13;;;6.45;80.53
18167;BME280;9208;42.688;23.404;2023-02-21T05:52:50;95761.00;;;6.48;79.92
18167;BME280;9208;42.688;23.404;2023-02-21T05:55:15;95766.47;;;6.36;79.48
18167;BME280;9208;42.688;23.404;2023-02-21T05:57:41;95767.50;;;6.29;80.54
18167;BME280;9208;42.688;23.404;2023-02-21T06:00:07;95776.00;;;6.31;79.85
18167;BME280;9208;42.688;23.404;2023-02-21T06:02:32;95772.97;;;6.29;80.56
18167;BME280;9208;42.688;23.404;2023-02-21T06:04:58;95780.34;;;6.29;81.13
18167;BME280;9208;42.688;23.404;2023-02-21T06:07:23;95771.41;;;6.28;81.01
18167;BME280;9208;42.688;23.404;2023-02-21T06:09:48;95768.06;;;6.24;82.39
18167;BME280;9208;42.688;23.404;2023-02-21T06:12:17;95776.13;;;6.28;82.67
18167;BME280;9208;42.688;23.404;2023-02-21T06:14:42;95765.66;;;6.26;83.69
18167;BME280;9208;42.688;23.404;2023-02-21T06:17:08;95782.63;;;6.30;83.64
18167;BME280;9208;42.688;23.404;2023-02-21T06:19:33;95773.66;;;6.42;82.77
18167;BME280;9208;42.688;23.404;2023-02-21T06:21:58;95774.28;;;6.46;83.04
18167;BME280;9208;42.688;23.404;2023-02-21T06:24:24;95781.13;;;6.51;82.10
18167;BME280;9208;42.688;23.404;2023-02-21T06:26:49;95771.63;;;6.55;81.96
18167;BME280;9208;42.688;23.404;2023-02-21T06:29:15;95777.72;;;6.59;81.72
18167;BME280;9208;42.688;23.404;2023-02-21T06:31:40;95772.91;;;6.63;81.69
18167;BME280;9208;42.688;23.404;2023-02-21T06:34:05;95774.09;;;6.62;83.30
18167;BME280;9208;42.688;23.404;2023-02-21T06:36:34;95777.13;;;6.64;83.70
18167;BME280;9208;42.688;23.404;2023-02-21T06:38:59;95789.00;;;6.70;84.64
18167;BME280;9208;42.688;23.404;2023-02-21T06:41:28;95781.31;;;6.78;84.94
18167;BME280;9208;42.688;23.404;2023-02-21T06:43:55;95789.56;;;6.87;84.59
18167;BME280;9208;42.688;23.404;2023-02-21T06:46:23;95798.53;;;6.96;83.35
18167;BME280;9208;42.688;23.404;2023-02-21T06:48:49;95798.56;;;7.05;82.45
18167;BME280;9208;42.688;23.404;2023-02-21T06:51:15;95799.41;;;7.15;81.78
18167;BME280;9208;42.688;23.404;2023-02-21T06:53:42;95793.09;;;7.27;81.34
18167;BME280;9208;42.688;23.404;2023-02-21T06:56:11;95794.97;;;7.39;80.03
18167;BME280;9208;42.688;23.404;2023-02-21T06:58:38;95790.13;;;7.43;79.80
18167;BME280;9208;42.688;23.404;2023-02-21T07:01:04;95799.88;;;7.53;79.25
18167;BME280;9208;42.688;23.404;2023-02-21T07:03:29;95805.81;;;7.60;78.30
18167;BME280;9208;42.688;23.404;2023-02-21T07:05:55;95796.75;;;7.72;78.12
18167;BME280;9208;42.688;23.404;2023-02-21T07:08:20;95797.53;;;7.82;77.38
18167;BME280;9208;42.688;23.404;2023-02-21T07:10:46;95799.53;;;7.90;76.74
18167;BME280;9208;42.688;23.404;2023-02-21T07:13:12;95797.28;;;7.98;75.95
18167;BME280;9208;42.688;23.404;2023-02-21T07:15:37;95801.56;;;8.08;74.88
18167;BME280;9208;42.688;23.404;2023-02-21T07:18:03;95814.66;;;8.22;73.95
18167;BME280;9208;42.688;23.404;2023-02-21T07:20:28;95813.16;;;8.30;73.06
18167;BME280;9208;42.688;23.404;2023-02-21T07:22:54;95815.44;;;8.40;72.82
18167;BME280;9208;42.688;23.404;2023-02-21T07:25:21;95810.56;;;8.44;71.97
18167;BME280;9208;42.688;23.404;2023-02-21T07:27:49;95801.47;;;8.56;71.57
18167;BME280;9208;42.688;23.404;2023-02-21T07:30:17;95796.00;;;8.65;70.97
18167;BME280;9208;42.688;23.404;2023-02-21T07:32:42;95801.28;;;8.69;70.77
18167;BME280;9208;42.688;23.404;2023-02-21T07:35:08;95785.97;;;8.71;71.15
18167;BME280;9208;42.688;23.404;2023-02-21T07:37:33;95791.41;;;8.80;71.07
18167;BME280;9208;42.688;23.404;2023-02-21T07:39:59;95779.28;;;8.81;70.93
18167;BME280;9208;42.688;23.404;2023-02-21T07:42:24;95782.63;;;8.85;70.58
18167;BME280;9208;42.688;23.404;2023-02-21T07:44:56;95778.66;;;8.86;70.39
18167;BME280;9208;42.688;23.404;2023-02-21T07:47:23;95781.66;;;8.97;69.77
18167;BME280;9208;42.688;23.404;2023-02-21T07:49:49;95777.56;;;9.02;69.59
18167;BME280;9208;42.688;23.404;2023-02-21T07:52:14;95775.88;;;9.13;69.55
18167;BME280;9208;42.688;23.404;2023-02-21T07:54:40;95781.59;;;9.24;69.15
18167;BME280;9208;42.688;23.404;2023-02-21T07:57:05;95778.25;;;9.20;68.91
18167;BME280;9208;42.688;23.404;2023-02-21T07:59:31;95784.66;;;9.26;68.72
18167;BME280;9208;42.688;23.404;2023-02-21T08:01:57;95772.00;;;9.38;69.17
18167;BME280;9208;42.688;23.404;2023-02-21T08:04:22;95766.34;;;9.41;68.29
18167;BME280;9208;42.688;23.404;2023-02-21T08:06:48;95766.31;;;9.50;67.87
18167;BME280;9208;42.688;23.404;2023-02-21T08:09:14;95764.31;;;9.60;67.90
18167;BME280;9208;42.688;23.404;2023-02-21T08:11:40;95767.44;;;9.67;67.34
18167;BME280;9208;42.688;23.404;2023-02-21T08:14:05;95774.44;;;9.68;66.79
18167;BME280;9208;42.688;23.404;2023-02-21T08:16:31;95769.38;;;9.76;66.90
18167;BME280;9208;42.688;23.404;2023-02-21T08:18:57;95766.31;;;9.83;66.36
18167;BME280;9208;42.688;23.404;2023-02-21T08:21:22;95763.22;;;9.90;65.79
18167;BME280;9208;42.688;23.404;2023-02-21T08:23:51;95794.09;;;9.90;64.07
18167;BME280;9208;42.688;23.404;2023-02-21T08:26:18;95794.06;;;9.99;63.51
18167;BME280;9208;42.688;23.404;2023-02-21T08:28:43;95785.50;;;10.06;64.13
18167;BME280;9208;42.688;23.404;2023-02-21T08:31:09;95771.19;;;10.12;63.80
18167;BME280;9208;42.688;23.404;2023-02-21T08:33:34;95774.78;;;10.18;63.75
18167;BME280;9208;42.688;23.404;2023-02-21T08:36:00;95770.63;;;10.22;63.72
18167;BME280;9208;42.688;23.404;2023-02-21T08:38:25;95779.88;;;10.34;63.43
18167;BME280;9208;42.688;23.404;2023-02-21T08:40:51;95774.00;;;10.41;63.52
18167;BME280;9208;42.688;23.404;2023-02-21T08:43:17;95762.72;;;10.48;63.02
18167;BME280;9208;42.688;23.404;2023-02-21T08:45:42;95770.28;;;10.53;63.28
18167;BME280;9208;42.688;23.404;2023-02-21T08:48:07;95771.59;;;10.57;62.05
18167;BME280;9208;42.688;23.404;2023-02-21T08:50:33;95770.19;;;10.62;61.72
18167;BME280;9208;42.688;23.404;2023-02-21T08:52:58;95783.06;;;10.70;60.74
18167;BME280;9208;42.688;23.404;2023-02-21T08:55:27;95780.25;;;10.79;60.57
18167;BME280;9208;42.688;23.404;2023-02-21T08:57:52;95781.16;;;10.76;60.69
18167;BME280;9208;42.688;23.404;2023-02-21T09:00:21;95776.75;;;10.79;59.64
18167;BME280;9208;42.688;23.404;2023-02-21T09:02:49;95782.44;;;10.90;60.49
18167;BME280;9208;42.688;23.404;2023-02-21T09:05:26;95779.59;;;10.99;59.99
18167;BME280;9208;42.688;23.404;2023-02-21T09:07:53;95781.78;;;11.09;59.77
18167;BME280;9208;42.688;23.404;2023-02-21T09:10:23;95787.09;;;11.13;58.99
18167;BME280;9208;42.688;23.404;2023-02-21T09:12:48;95775.75;;;11.20;59.59
18167;BME280;9208;42.688;23.404;2023-02-21T09:15:15;95771.84;;;11.26;59.89
18167;BME280;9208;42.688;23.404;2023-02-21T09:17:41;95771.00;;;11.35;59.43
18167;BME280;9208;42.688;23.404;2023-02-21T09:20:08;95765.13;;;11.42;60.06
18167;BME280;9208;42.688;23.404;2023-02-21T09:22:34;95771.91;;;11.46;59.93
18167;BME280;9208;42.688;23.404;2023-02-21T09:25:00;95762.53;;;11.53;59.47
18167;BME280;9208;42.688;23.404;2023-02-21T09:27:28;95770.69;;;11.62;59.07
18167;BME280;9208;42.688;23.404;2023-02-21T09:30:23;95765.88;;;11.71;58.86
18167;BME280;9208;42.688;23.404;2023-02-21T09:32:50;95773.22;;;11.80;58.33
18167;BME280;9208;42.688;23.404;2023-02-21T09:35:17;95772.06;;;11.86;58.16
18167;BME280;9208;42.688;23.404;2023-02-21T09:37:44;95768.44;;;11.95;57.82
18167;BME280;9208;42.688;23.404;2023-02-21T09:40:40;95763.09;;;12.06;57.89
18167;BME280;9208;42.688;23.404;2023-02-21T09:43:17;95764.41;;;12.10;57.47
18167;BME280;9208;42.688;23.404;2023-02-21T09:45:44;95751.28;;;12.20;57.47
18167;BME280;9208;42.688;23.404;2023-02-21T09:48:16;95754.66;;;12.29;56.75
18167;BME280;9208;42.688;23.404;2023-02-21T09:50:52;95759.72;;;12.36;56.16
18167;BME280;9208;42.688;23.404;2023-02-21T09:53:23;95767.84;;;12.45;55.34
18167;BME280;9208;42.688;23.404;2023-02-21T09:55:53;95780.69;;;12.54;55.05
18167;BME280;9208;42.688;23.404;2023-02-21T09:58:19;95788.75;;;12.57;53.56
18167;BME280;9208;42.688;23.404;2023-02-21T10:00:45;95784.06;;;12.63;53.39
18167;BME280;9208;42.688;23.404;2023-02-21T10:09:26;95787.53;;;13.04;52.08
18167;BME280;9208;42.688;23.404;2023-02-21T10:12:23;95808.16;;;13.14;50.90
18167;BME280;9208;42.688;23.404;2023-02-21T10:17:56;95809.63;;;13.35;49.61
18167;BME280;9208;42.688;23.404;2023-02-21T10:20:37;95812.22;;;13.44;49.01
18167;BME280;9208;42.688;23.404;2023-02-21T10:26:12;95808.88;;;13.65;48.31
18167;BME280;9208;42.688;23.404;2023-02-21T10:28:38;95813.97;;;13.78;47.81
18167;BME280;9208;42.688;23.404;2023-02-21T10:31:10;95816.84;;;13.89;47.45
18167;BME280;9208;42.688;23.404;2023-02-21T10:33:38;95808.88;;;13.96;47.66
18167;BME280;9208;42.688;23.404;2023-02-21T10:36:20;95809.88;;;13.99;46.72
18167;BME280;9208;42.688;23.404;2023-02-21T10:39:05;95805.69;;;14.09;46.72
18167;BME280;9208;42.688;23.404;2023-02-21T10:41:37;95797.22;;;14.18;46.56
18167;BME280;9208;42.688;23.404;2023-02-21T10:44:25;95807.34;;;14.32;46.26
18167;BME280;9208;42.688;23.404;2023-02-21T10:49:39;95797.41;;;14.51;45.58
18167;BME280;9208;42.688;23.404;2023-02-21T10:52:14;95800.25;;;14.67;44.98
18167;BME280;9208;42.688;23.404;2023-02-21T10:55:20;95794.28;;;14.80;44.62
18167;BME280;9208;42.688;23.404;2023-02-21T10:57:48;95795.56;;;14.90;44.25
18167;BME280;9208;42.688;23.404;2023-02-21T11:02:56;95798.38;;;15.12;43.13
18167;BME280;9208;42.688;23.404;2023-02-21T11:05:27;95811.19;;;15.20;42.84
18167;BME280;9208;42.688;23.404;2023-02-21T11:08:08;95807.22;;;15.32;42.88
18167;BME280;9208;42.688;23.404;2023-02-21T11:10:43;95817.28;;;15.46;42.18
18167;BME280;9208;42.688;23.404;2023-02-21T11:13:19;95903.72;;;15.58;35.88
18167;BME280;9208;42.688;23.404;2023-02-21T11:15:45;95917.34;;;15.78;35.80
18167;BME280;9208;42.688;23.404;2023-02-21T11:18:13;95909.56;;;15.93;35.92
18167;BME280;9208;42.688;23.404;2023-02-21T11:20:39;95895.75;;;16.04;35.60
18167;BME280;9208;42.688;23.404;2023-02-21T11:23:17;95900.53;;;16.25;36.04
18167;BME280;9208;42.688;23.404;2023-02-21T11:25:43;95906.81;;;16.37;35.03
18167;BME280;9208;42.688;23.404;2023-02-21T11:30:36;95909.81;;;16.61;34.96
18167;BME280;9208;42.688;23.404;2023-02-21T11:33:03;95909.81;;;16.66;34.16
18167;BME280;9208;42.688;23.404;2023-02-21T11:35:45;95909.03;;;16.77;33.98
18167;BME280;9208;42.688;23.404;2023-02-21T11:41:19;95911.28;;;16.89;32.80
18167;BME280;9208;42.688;23.404;2023-02-21T11:43:50;95910.22;;;17.09;32.82
18167;BME280;9208;42.688;23.404;2023-02-21T11:49:25;95906.38;;;17.23;32.98
18167;BME280;9208;42.688;23.404;2023-02-21T11:52:14;95913.88;;;17.33;32.24
18167;BME280;9208;42.688;23.404;2023-02-21T11:54:42;95888.44;;;17.35;32.43
18167;BME280;9208;42.688;23.404;2023-02-21T11:57:09;95901.03;;;17.41;32.17
18167;BME280;9208;42.688;23.404;2023-02-21T11:59:45;95901.25;;;17.43;32.03
18167;BME280;9208;42.688;23.404;2023-02-21T12:04:47;95863.16;;;17.55;32.55
18167;BME280;9208;42.688;23.404;2023-02-21T12:07:27;95866.13;;;17.62;32.55
18167;BME280;9208;42.688;23.404;2023-02-21T12:10:18;95873.69;;;17.62;31.86
18167;BME280;9208;42.688;23.404;2023-02-21T12:12:51;95866.84;;;17.68;31.97
18167;BME280;9208;42.688;23.404;2023-02-21T12:15:29;95864.78;;;17.74;32.20
18167;BME280;9208;42.688;23.404;2023-02-21T12:31:36;95816.84;;;18.09;31.89
18167;BME280;9208;42.688;23.404;2023-02-21T12:40:12;95799.72;;;18.05;32.20
18167;BME280;9208;42.688;23.404;2023-02-21T12:42:56;95788.13;;;18.06;32.43
18167;BME280;9208;42.688;23.404;2023-02-21T12:50:58;95790.34;;;18.13;31.79
18167;BME280;9208;42.688;23.404;2023-02-21T12:53:36;95786.50;;;18.16;31.98
18167;BME280;9208;42.688;23.404;2023-02-21T12:56:14;95783.47;;;18.20;31.99
18167;BME280;9208;42.688;23.404;2023-02-21T12:58:47;95780.44;;;18.18;32.28
18167;BME280;9208;42.688;23.404;2023-02-21T13:01:20;95788.00;;;18.17;31.44
18167;BME280;9208;42.688;23.404;2023-02-21T13:06:50;95782.41;;;18.23;31.95
18167;BME280;9208;42.688;23.404;2023-02-21T13:12:22;95772.94;;;18.37;31.42
18167;BME280;9208;42.688;23.404;2023-02-21T13:15:13;95770.88;;;18.43;31.69
18167;BME280;9208;42.688;23.404;2023-02-21T13:17:41;95766.00;;;18.49;31.72
18167;BME280;9208;42.688;23.404;2023-02-21T13:20:14;95770.97;;;18.56;31.75
18167;BME280;9208;42.688;23.404;2023-02-21T13:28:32;95774.44;;;18.62;31.33
18167;BME280;9208;42.688;23.404;2023-02-21T13:31:02;95758.81;;;18.59;31.07
18167;BME280;9208;42.688;23.404;2023-02-21T13:33:40;95758.97;;;18.67;31.10
18167;BME280;9208;42.688;23.404;2023-02-21T13:36:32;95754.19;;;18.67;31.08
18167;BME280;9208;42.688;23.404;2023-02-21T13:41:47;95749.31;;;18.73;31.07
18167;BME280;9208;42.688;23.404;2023-02-21T13:44:50;95749.53;;;18.75;31.01
18167;BME280;9208;42.688;23.404;2023-02-21T13:47:19;95745.47;;;18.76;31.15
18167;BME280;9208;42.688;23.404;2023-02-21T13:58:28;95730.75;;;18.81;30.96
18167;BME280;9208;42.688;23.404;2023-02-21T14:02:58;95730.19;;;18.88;30.99
18167;BME280;9208;42.688;23.404;2023-02-21T14:05:24;95732.66;;;18.92;30.53
18167;BME280;9208;42.688;23.404;2023-02-21T14:08:01;95730.09;;;18.94;30.46
18167;BME280;9208;42.688;23.404;2023-02-21T14:10:40;95736.94;;;18.93;30.27
18167;BME280;9208;42.688;23.404;2023-02-21T14:13:19;95730.63;;;18.92;30.43
18167;BME280;9208;42.688;23.404;2023-02-21T14:15:48;95728.28;;;18.96;30.50
18167;BME280;9208;42.688;23.404;2023-02-21T14:18:18;95726.25;;;18.97;30.30
18167;BME280;9208;42.688;23.404;2023-02-21T14:20:51;95735.13;;;18.95;30.10
18167;BME280;9208;42.688;23.404;2023-02-21T14:23:19;95744.59;;;18.87;29.89
18167;BME280;9208;42.688;23.404;2023-02-21T14:26:00;95740.06;;;18.84;29.21
18167;BME280;9208;42.688;23.404;2023-02-21T14:28:49;95748.56;;;18.73;28.86
18167;BME280;9208;42.688;23.404;2023-02-21T14:31:48;95743.44;;;18.58;29.46
18167;BME280;9208;42.688;23.404;2023-02-21T14:34:20;95742.00;;;18.52;28.87
18167;BME280;9208;42.688;23.404;2023-02-21T14:36:48;95730.72;;;18.44;29.13
18167;BME280;9208;42.688;23.404;2023-02-21T14:39:17;95729.97;;;18.43;29.51
18167;BME280;9208;42.688;23.404;2023-02-21T14:41:56;95742.13;;;18.41;28.74
18167;BME280;9208;42.688;23.404;2023-02-21T14:44:52;95739.41;;;18.35;28.97
18167;BME280;9208;42.688;23.404;2023-02-21T14:50:44;95731.63;;;18.28;28.67
18167;BME280;9208;42.688;23.404;2023-02-21T14:59:15;95715.44;;;18.32;29.33
18167;BME280;9208;42.688;23.404;2023-02-21T15:04:47;95709.72;;;18.24;29.73
18167;BME280;9208;42.688;23.404;2023-02-21T15:12:41;95707.59;;;18.12;29.58
18167;BME280;9208;42.688;23.404;2023-02-21T15:15:14;95703.09;;;18.09;29.61
18167;BME280;9208;42.688;23.404;2023-02-21T15:17:40;95698.06;;;18.07;29.83
18167;BME280;9208;42.688;23.404;2023-02-21T15:20:14;95695.63;;;17.98;29.82
18167;BME280;9208;42.688;23.404;2023-02-21T15:22:40;95694.91;;;17.98;29.80
18167;BME280;9208;42.688;23.404;2023-02-21T15:33:13;95698.34;;;17.80;30.06
18167;BME280;9208;42.688;23.404;2023-02-21T15:35:39;95702.44;;;17.73;30.00
18167;BME280;9208;42.688;23.404;2023-02-21T15:38:17;95702.72;;;17.70;30.02
18167;BME280;9208;42.688;23.404;2023-02-21T15:40:44;95694.50;;;17.59;30.23
18167;BME280;9208;42.688;23.404;2023-02-21T15:43:28;95700.38;;;17.50;30.28
18167;BME280;9208;42.688;23.404;2023-02-21T15:45:56;95709.72;;;17.47;30.13
18167;BME280;9208;42.688;23.404;2023-02-21T15:48:24;95702.75;;;17.35;30.10
18167;BME280;9208;42.688;23.404;2023-02-21T15:50:50;95703.53;;;17.30;30.21